PWSweather.com
Personal Weather Stations
Station Observations
WD4JKH
Forsyth, GA 31029

Forsyth, GA 31029

Lat: 33.033225, Lon: -83.927995

Elevation: 709

Station Type: Davis Vantage VUE

High Low Average
Temperature 91.7°F33.2°C 69.2°F20.7°C 78.4°F25.8°C
Dew Point 75.7°F24.3°C 66.2°F19.0°C 71.3°F21.8°C
Winds 4.5 mph 7.2 kmh Calm Calm 1.0 mph SW1.6 kmh SW
Wind Gusts 11.0 mph17.7 kmh -- 4.0 mph6.4 kmh
Humidity 98% 45% 81%
Pressure 29.97 in1014.9 mb 29.86 in1011.2 mb -
Precipitation 0.01 in0.3 mm - -
Hour Temp Dew Point Humidity Winds Wind Gusts Pressure Precip Precip Rate Daily Precip Total
12:03 AM 71.1°F21.7°C 70.2°F21.2°C 97% Calm Calm 1.0 mph1.6 kmh 29.94 in1013.9 mb 0.00 in0.0 mm 0.00 in0.0 mm 0.00 in0.0 mm
12:08 AM 71.1°F21.7°C 70.2°F21.2°C 97% 1.0 mph SE1.6 kmh SE 1.0 mph1.6 kmh 29.94 in1013.9 mb 0.00 in0.0 mm 0.00 in0.0 mm 0.00 in0.0 mm
12:13 AM 71.1°F21.7°C 70.2°F21.2°C 97% Calm Calm 1.0 mph1.6 kmh 29.94 in1013.9 mb 0.00 in0.0 mm 0.00 in0.0 mm 0.00 in0.0 mm
12:18 AM 71.0°F21.7°C 70.1°F21.2°C 97% 1.0 mph WSW1.6 kmh WSW 1.0 mph1.6 kmh 29.94 in1013.9 mb 0.00 in0.0 mm 0.00 in0.0 mm 0.00 in0.0 mm
12:23 AM 71.0°F21.7°C 70.1°F21.2°C 97% 1.0 mph WSW1.6 kmh WSW 1.0 mph1.6 kmh 29.94 in1013.9 mb 0.00 in0.0 mm 0.00 in0.0 mm 0.00 in0.0 mm
12:28 AM 70.9°F21.6°C 70.0°F21.1°C 97% 1.0 mph SW1.6 kmh SW 1.0 mph1.6 kmh 29.94 in1013.9 mb 0.00 in0.0 mm 0.00 in0.0 mm 0.00 in0.0 mm
12:33 AM 70.9°F21.6°C 70.0°F21.1°C 97% 1.0 mph SW1.6 kmh SW 1.0 mph1.6 kmh 29.94 in1013.9 mb 0.00 in0.0 mm 0.00 in0.0 mm 0.00 in0.0 mm
12:38 AM 70.9°F21.6°C 70.0°F21.1°C 97% 1.0 mph SW1.6 kmh SW 2.0 mph3.2 kmh 29.94 in1013.9 mb 0.00 in0.0 mm 0.00 in0.0 mm 0.00 in0.0 mm
12:43 AM 70.9°F21.6°C 70.0°F21.1°C 97% 1.5 mph SW2.4 kmh SW 3.0 mph4.8 kmh 29.94 in1013.9 mb 0.00 in0.0 mm 0.00 in0.0 mm 0.00 in0.0 mm
12:48 AM 70.9°F21.6°C 70.0°F21.1°C 97% 1.0 mph SW1.6 kmh SW 3.0 mph4.8 kmh 29.93 in1013.5 mb 0.00 in0.0 mm 0.00 in0.0 mm 0.00 in0.0 mm
12:53 AM 70.9°F21.6°C 70.0°F21.1°C 97% 1.0 mph SW1.6 kmh SW 3.0 mph4.8 kmh 29.93 in1013.5 mb 0.00 in0.0 mm 0.00 in0.0 mm 0.00 in0.0 mm
12:58 AM 70.8°F21.6°C 69.9°F21.1°C 97% 1.0 mph SW1.6 kmh SW 3.0 mph4.8 kmh 29.93 in1013.5 mb 0.00 in0.0 mm 0.00 in0.0 mm 0.00 in0.0 mm
01:03 AM 70.8°F21.6°C 69.9°F21.1°C 97% 2.1 mph SW3.4 kmh SW 3.0 mph4.8 kmh 29.93 in1013.5 mb 0.00 in0.0 mm 0.00 in0.0 mm 0.00 in0.0 mm
01:08 AM 70.8°F21.6°C 69.9°F21.1°C 97% 2.0 mph SW3.2 kmh SW 3.0 mph4.8 kmh 29.93 in1013.5 mb 0.00 in0.0 mm 0.00 in0.0 mm 0.00 in0.0 mm
01:13 AM 70.8°F21.6°C 69.9°F21.1°C 97% 1.1 mph SW1.8 kmh SW 3.0 mph4.8 kmh 29.93 in1013.5 mb 0.00 in0.0 mm 0.00 in0.0 mm 0.00 in0.0 mm
01:18 AM 70.7°F21.5°C 69.8°F21.0°C 97% 1.3 mph SW2.1 kmh SW 4.0 mph6.4 kmh 29.93 in1013.5 mb 0.00 in0.0 mm 0.00 in0.0 mm 0.00 in0.0 mm
01:23 AM 70.7°F21.5°C 69.8°F21.0°C 97% 1.0 mph WSW1.6 kmh WSW 4.0 mph6.4 kmh 29.93 in1013.5 mb 0.00 in0.0 mm 0.00 in0.0 mm 0.00 in0.0 mm
01:28 AM 70.6°F21.4°C 69.7°F20.9°C 97% 1.0 mph SW1.6 kmh SW 4.0 mph6.4 kmh 29.93 in1013.5 mb 0.00 in0.0 mm 0.00 in0.0 mm 0.00 in0.0 mm
01:33 AM 70.6°F21.4°C 70.0°F21.1°C 98% 1.4 mph SW2.3 kmh SW 3.0 mph4.8 kmh 29.93 in1013.5 mb 0.00 in0.0 mm 0.00 in0.0 mm 0.00 in0.0 mm
01:38 AM 70.6°F21.4°C 70.0°F21.1°C 98% 1.8 mph SW2.9 kmh SW 4.0 mph6.4 kmh 29.93 in1013.5 mb 0.00 in0.0 mm 0.00 in0.0 mm 0.00 in0.0 mm
01:43 AM 70.7°F21.5°C 70.1°F21.2°C 98% 1.6 mph SW2.6 kmh SW 4.0 mph6.4 kmh 29.93 in1013.5 mb 0.00 in0.0 mm 0.00 in0.0 mm 0.00 in0.0 mm
01:48 AM 70.8°F21.6°C 70.2°F21.2°C 98% 1.7 mph SW2.7 kmh SW 5.0 mph8.0 kmh 29.93 in1013.5 mb 0.01 in0.3 mm 0.12 in3.0 mm 0.01 in0.3 mm
01:53 AM 70.8°F21.6°C 70.2°F21.2°C 98% 1.6 mph SW2.6 kmh SW 5.0 mph8.0 kmh 29.93 in1013.5 mb 0.01 in0.3 mm 0.00 in0.0 mm 0.01 in0.3 mm
01:58 AM 70.9°F21.6°C 70.3°F21.3°C 98% 1.5 mph SW2.4 kmh SW 6.0 mph9.7 kmh 29.93 in1013.5 mb 0.01 in0.3 mm 0.00 in0.0 mm 0.01 in0.3 mm
02:03 AM 70.9°F21.6°C 70.3°F21.3°C 98% 2.0 mph SW3.2 kmh SW 6.0 mph9.7 kmh 29.93 in1013.5 mb 0.01 in0.3 mm 0.00 in0.0 mm 0.01 in0.3 mm
02:08 AM 70.9°F21.6°C 70.3°F21.3°C 98% 2.2 mph SW3.5 kmh SW 6.0 mph9.7 kmh 29.93 in1013.5 mb 0.01 in0.3 mm 0.00 in0.0 mm 0.01 in0.3 mm
02:13 AM 71.0°F21.7°C 70.4°F21.3°C 98% 2.3 mph SW3.7 kmh SW 6.0 mph9.7 kmh 29.93 in1013.5 mb 0.01 in0.3 mm 0.00 in0.0 mm 0.01 in0.3 mm
02:18 AM 70.9°F21.6°C 70.3°F21.3°C 98% 2.3 mph SSW3.7 kmh SSW 6.0 mph9.7 kmh 29.93 in1013.5 mb 0.01 in0.3 mm 0.00 in0.0 mm 0.01 in0.3 mm
02:23 AM 70.9°F21.6°C 70.3°F21.3°C 98% 1.4 mph SW2.3 kmh SW 5.0 mph8.0 kmh 29.94 in1013.9 mb 0.01 in0.3 mm 0.00 in0.0 mm 0.01 in0.3 mm
02:28 AM 71.0°F21.7°C 70.4°F21.3°C 98% 1.7 mph SW2.7 kmh SW 5.0 mph8.0 kmh 29.94 in1013.9 mb 0.01 in0.3 mm 0.00 in0.0 mm 0.01 in0.3 mm
02:33 AM 71.0°F21.7°C 70.4°F21.3°C 98% 1.4 mph SW2.3 kmh SW 4.0 mph6.4 kmh 29.94 in1013.9 mb 0.01 in0.3 mm 0.00 in0.0 mm 0.01 in0.3 mm
02:38 AM 71.0°F21.7°C 70.4°F21.3°C 98% Calm Calm 4.0 mph6.4 kmh 29.94 in1013.9 mb 0.01 in0.3 mm 0.00 in0.0 mm 0.01 in0.3 mm
02:43 AM 70.9°F21.6°C 70.3°F21.3°C 98% 1.8 mph SW2.9 kmh SW 4.0 mph6.4 kmh 29.94 in1013.9 mb 0.01 in0.3 mm 0.00 in0.0 mm 0.01 in0.3 mm
02:48 AM 70.8°F21.6°C 70.2°F21.2°C 98% 1.0 mph WSW1.6 kmh WSW 4.0 mph6.4 kmh 29.93 in1013.5 mb 0.00 in0.0 mm 0.00 in0.0 mm 0.01 in0.3 mm
02:53 AM 70.8°F21.6°C 70.2°F21.2°C 98% Calm Calm 4.0 mph6.4 kmh 29.93 in1013.5 mb 0.00 in0.0 mm 0.00 in0.0 mm 0.01 in0.3 mm
02:58 AM 70.7°F21.5°C 70.1°F21.2°C 98% 1.0 mph SW1.6 kmh SW 5.0 mph8.0 kmh 29.93 in1013.5 mb 0.00 in0.0 mm 0.00 in0.0 mm 0.01 in0.3 mm
03:03 AM 70.6°F21.4°C 70.0°F21.1°C 98% Calm Calm 5.0 mph8.0 kmh 29.93 in1013.5 mb 0.00 in0.0 mm 0.00 in0.0 mm 0.01 in0.3 mm
03:08 AM 70.6°F21.4°C 70.0°F21.1°C 98% Calm Calm 5.0 mph8.0 kmh 29.93 in1013.5 mb 0.00 in0.0 mm 0.00 in0.0 mm 0.01 in0.3 mm
03:13 AM 70.5°F21.4°C 69.9°F21.1°C 98% 1.0 mph S1.6 kmh S 5.0 mph8.0 kmh 29.93 in1013.5 mb 0.00 in0.0 mm 0.00 in0.0 mm 0.01 in0.3 mm
03:18 AM 70.5°F21.4°C 69.9°F21.1°C 98% Calm Calm 3.0 mph4.8 kmh 29.93 in1013.5 mb 0.00 in0.0 mm 0.00 in0.0 mm 0.01 in0.3 mm
03:23 AM 70.4°F21.3°C 69.8°F21.0°C 98% 1.3 mph WSW2.1 kmh WSW 3.0 mph4.8 kmh 29.93 in1013.5 mb 0.00 in0.0 mm 0.00 in0.0 mm 0.01 in0.3 mm
03:28 AM 70.3°F21.3°C 69.7°F20.9°C 98% 1.0 mph W1.6 kmh W 3.0 mph4.8 kmh 29.93 in1013.5 mb 0.00 in0.0 mm 0.00 in0.0 mm 0.01 in0.3 mm
03:33 AM 70.2°F21.2°C 69.6°F20.9°C 98% Calm Calm 2.0 mph3.2 kmh 29.93 in1013.5 mb 0.00 in0.0 mm 0.00 in0.0 mm 0.01 in0.3 mm
03:38 AM 70.1°F21.2°C 69.5°F20.8°C 98% 1.0 mph SW1.6 kmh SW 3.0 mph4.8 kmh 29.93 in1013.5 mb 0.00 in0.0 mm 0.00 in0.0 mm 0.01 in0.3 mm
03:43 AM 70.1°F21.2°C 69.5°F20.8°C 98% 1.7 mph SW2.7 kmh SW 3.0 mph4.8 kmh 29.93 in1013.5 mb 0.00 in0.0 mm 0.00 in0.0 mm 0.01 in0.3 mm
03:48 AM 70.0°F21.1°C 69.4°F20.8°C 98% 1.0 mph SW1.6 kmh SW 3.0 mph4.8 kmh 29.93 in1013.5 mb 0.00 in0.0 mm 0.00 in0.0 mm 0.01 in0.3 mm
03:54 AM 70.0°F21.1°C 69.4°F20.8°C 98% 1.0 mph SW1.6 kmh SW 3.0 mph4.8 kmh 29.93 in1013.5 mb 0.00 in0.0 mm 0.00 in0.0 mm 0.01 in0.3 mm
03:59 AM 69.9°F21.1°C 69.3°F20.7°C 98% Calm Calm 2.0 mph3.2 kmh 29.93 in1013.5 mb 0.00 in0.0 mm 0.00 in0.0 mm 0.01 in0.3 mm
04:04 AM 69.9°F21.1°C 69.3°F20.7°C 98% 1.0 mph SW1.6 kmh SW 2.0 mph3.2 kmh 29.93 in1013.5 mb 0.00 in0.0 mm 0.00 in0.0 mm 0.01 in0.3 mm
04:09 AM 69.9°F21.1°C 69.3°F20.7°C 98% 1.1 mph SW1.8 kmh SW 2.0 mph3.2 kmh 29.93 in1013.5 mb 0.00 in0.0 mm 0.00 in0.0 mm 0.01 in0.3 mm
04:14 AM 69.9°F21.1°C 69.3°F20.7°C 98% 1.0 mph WSW1.6 kmh WSW 2.0 mph3.2 kmh 29.93 in1013.5 mb 0.00 in0.0 mm 0.00 in0.0 mm 0.01 in0.3 mm
04:19 AM 69.8°F21.0°C 69.2°F20.7°C 98% 1.4 mph SW2.3 kmh SW 3.0 mph4.8 kmh 29.93 in1013.5 mb 0.00 in0.0 mm 0.00 in0.0 mm 0.01 in0.3 mm
04:22 AM 69.8°F21.0°C 69.2°F20.7°C 98% 1.0 mph WSW1.6 kmh WSW 3.0 mph4.8 kmh 29.93 in1013.5 mb 0.00 in0.0 mm 0.00 in0.0 mm 0.01 in0.3 mm
04:27 AM 69.8°F21.0°C 69.2°F20.7°C 98% 1.5 mph SW2.4 kmh SW 3.0 mph4.8 kmh 29.93 in1013.5 mb 0.00 in0.0 mm 0.00 in0.0 mm 0.01 in0.3 mm
04:32 AM 69.7°F20.9°C 69.1°F20.6°C 98% 1.4 mph SW2.3 kmh SW 3.0 mph4.8 kmh 29.93 in1013.5 mb 0.00 in0.0 mm 0.00 in0.0 mm 0.01 in0.3 mm
04:37 AM 69.7°F20.9°C 69.1°F20.6°C 98% 1.0 mph SW1.6 kmh SW 2.0 mph3.2 kmh 29.93 in1013.5 mb 0.00 in0.0 mm 0.00 in0.0 mm 0.01 in0.3 mm
04:42 AM 69.7°F20.9°C 69.1°F20.6°C 98% 1.0 mph SW1.6 kmh SW 2.0 mph3.2 kmh 29.93 in1013.5 mb 0.00 in0.0 mm 0.00 in0.0 mm 0.01 in0.3 mm
04:47 AM 69.6°F20.9°C 69.0°F20.6°C 98% 1.0 mph WSW1.6 kmh WSW 2.0 mph3.2 kmh 29.93 in1013.5 mb 0.00 in0.0 mm 0.00 in0.0 mm 0.01 in0.3 mm
04:52 AM 69.6°F20.9°C 69.0°F20.6°C 98% Calm Calm 2.0 mph3.2 kmh 29.93 in1013.5 mb 0.00 in0.0 mm 0.00 in0.0 mm 0.01 in0.3 mm
04:57 AM 69.6°F20.9°C 69.0°F20.6°C 98% Calm Calm 2.0 mph3.2 kmh 29.93 in1013.5 mb 0.00 in0.0 mm 0.00 in0.0 mm 0.01 in0.3 mm
05:02 AM 69.5°F20.8°C 68.9°F20.5°C 98% 1.0 mph SW1.6 kmh SW 2.0 mph3.2 kmh 29.93 in1013.5 mb 0.00 in0.0 mm 0.00 in0.0 mm 0.01 in0.3 mm
05:07 AM 69.5°F20.8°C 68.9°F20.5°C 98% Calm Calm 1.0 mph1.6 kmh 29.93 in1013.5 mb 0.00 in0.0 mm 0.00 in0.0 mm 0.01 in0.3 mm
05:12 AM 69.5°F20.8°C 68.9°F20.5°C 98% 1.0 mph WSW1.6 kmh WSW 1.0 mph1.6 kmh 29.93 in1013.5 mb 0.00 in0.0 mm 0.00 in0.0 mm 0.01 in0.3 mm
05:17 AM 69.5°F20.8°C 68.9°F20.5°C 98% Calm Calm 1.0 mph1.6 kmh 29.94 in1013.9 mb 0.00 in0.0 mm 0.00 in0.0 mm 0.01 in0.3 mm
05:22 AM 69.4°F20.8°C 68.8°F20.4°C 98% 1.8 mph SSW2.9 kmh SSW 5.0 mph8.0 kmh 29.93 in1013.5 mb 0.00 in0.0 mm 0.00 in0.0 mm 0.01 in0.3 mm
05:27 AM 69.4°F20.8°C 68.8°F20.4°C 98% 1.4 mph SW2.3 kmh SW 5.0 mph8.0 kmh 29.93 in1013.5 mb 0.00 in0.0 mm 0.00 in0.0 mm 0.01 in0.3 mm
05:32 AM 69.4°F20.8°C 68.8°F20.4°C 98% Calm Calm 5.0 mph8.0 kmh 29.94 in1013.9 mb 0.00 in0.0 mm 0.00 in0.0 mm 0.01 in0.3 mm
05:37 AM 69.4°F20.8°C 68.8°F20.4°C 98% Calm Calm 5.0 mph8.0 kmh 29.93 in1013.5 mb 0.00 in0.0 mm 0.00 in0.0 mm 0.01 in0.3 mm
05:42 AM 69.4°F20.8°C 68.8°F20.4°C 98% 1.0 mph SW1.6 kmh SW 3.0 mph4.8 kmh 29.93 in1013.5 mb 0.00 in0.0 mm 0.00 in0.0 mm 0.01 in0.3 mm
05:47 AM 69.3°F20.7°C 68.7°F20.4°C 98% Calm Calm 2.0 mph3.2 kmh 29.93 in1013.5 mb 0.00 in0.0 mm 0.00 in0.0 mm 0.01 in0.3 mm
05:52 AM 69.3°F20.7°C 68.7°F20.4°C 98% Calm Calm 1.0 mph1.6 kmh 29.94 in1013.9 mb 0.00 in0.0 mm 0.00 in0.0 mm 0.01 in0.3 mm
05:58 AM 69.2°F20.7°C 68.6°F20.3°C 98% Calm Calm 1.0 mph1.6 kmh 29.93 in1013.5 mb 0.00 in0.0 mm 0.00 in0.0 mm 0.01 in0.3 mm
06:02 AM 69.2°F20.7°C 68.6°F20.3°C 98% Calm Calm -- 29.94 in1013.9 mb 0.00 in0.0 mm 0.00 in0.0 mm 0.01 in0.3 mm
06:07 AM 69.2°F20.7°C 68.6°F20.3°C 98% Calm Calm -- 29.94 in1013.9 mb 0.00 in0.0 mm 0.00 in0.0 mm 0.01 in0.3 mm
06:13 AM 69.2°F20.7°C 68.6°F20.3°C 98% Calm Calm -- 29.94 in1013.9 mb 0.00 in0.0 mm 0.00 in0.0 mm 0.01 in0.3 mm
06:18 AM 69.2°F20.7°C 68.6°F20.3°C 98% Calm Calm -- 29.94 in1013.9 mb 0.00 in0.0 mm 0.00 in0.0 mm 0.01 in0.3 mm
06:23 AM 69.2°F20.7°C 68.6°F20.3°C 98% Calm Calm -- 29.94 in1013.9 mb 0.00 in0.0 mm 0.00 in0.0 mm 0.01 in0.3 mm
06:28 AM 69.3°F20.7°C 68.7°F20.4°C 98% Calm Calm -- 29.94 in1013.9 mb 0.00 in0.0 mm 0.00 in0.0 mm 0.01 in0.3 mm
06:33 AM 69.4°F20.8°C 68.8°F20.4°C 98% Calm Calm -- 29.94 in1013.9 mb 0.00 in0.0 mm 0.00 in0.0 mm 0.01 in0.3 mm
06:38 AM 69.5°F20.8°C 68.9°F20.5°C 98% Calm Calm -- 29.94 in1013.9 mb 0.00 in0.0 mm 0.00 in0.0 mm 0.01 in0.3 mm
06:43 AM 69.6°F20.9°C 69.0°F20.6°C 98% Calm Calm -- 29.94 in1013.9 mb 0.00 in0.0 mm 0.00 in0.0 mm 0.01 in0.3 mm
06:48 AM 69.7°F20.9°C 69.1°F20.6°C 98% Calm Calm -- 29.94 in1013.9 mb 0.00 in0.0 mm 0.00 in0.0 mm 0.01 in0.3 mm
06:53 AM 69.8°F21.0°C 69.2°F20.7°C 98% Calm Calm -- 29.94 in1013.9 mb 0.00 in0.0 mm 0.00 in0.0 mm 0.01 in0.3 mm
06:58 AM 69.9°F21.1°C 69.3°F20.7°C 98% Calm Calm -- 29.94 in1013.9 mb 0.00 in0.0 mm 0.00 in0.0 mm 0.01 in0.3 mm
07:03 AM 70.1°F21.2°C 69.5°F20.8°C 98% Calm Calm -- 29.94 in1013.9 mb 0.00 in0.0 mm 0.00 in0.0 mm 0.01 in0.3 mm
07:08 AM 70.0°F21.1°C 69.4°F20.8°C 98% Calm Calm -- 29.94 in1013.9 mb 0.00 in0.0 mm 0.00 in0.0 mm 0.01 in0.3 mm
07:13 AM 70.1°F21.2°C 69.5°F20.8°C 98% Calm Calm -- 29.95 in1014.2 mb 0.00 in0.0 mm 0.00 in0.0 mm 0.01 in0.3 mm
07:18 AM 70.2°F21.2°C 69.6°F20.9°C 98% 1.0 mph NW1.6 kmh NW 1.0 mph1.6 kmh 29.95 in1014.2 mb 0.00 in0.0 mm 0.00 in0.0 mm 0.01 in0.3 mm
07:23 AM 70.2°F21.2°C 69.6°F20.9°C 98% Calm Calm 1.0 mph1.6 kmh 29.95 in1014.2 mb 0.00 in0.0 mm 0.00 in0.0 mm 0.01 in0.3 mm
07:28 AM 70.2°F21.2°C 69.6°F20.9°C 98% 1.0 mph N1.6 kmh N 2.0 mph3.2 kmh 29.95 in1014.2 mb 0.00 in0.0 mm 0.00 in0.0 mm 0.01 in0.3 mm
07:33 AM 70.5°F21.4°C 69.9°F21.1°C 98% Calm Calm 2.0 mph3.2 kmh 29.95 in1014.2 mb 0.00 in0.0 mm 0.00 in0.0 mm 0.01 in0.3 mm
07:38 AM 70.4°F21.3°C 69.8°F21.0°C 98% 1.1 mph W1.8 kmh W 2.0 mph3.2 kmh 29.95 in1014.2 mb 0.00 in0.0 mm 0.00 in0.0 mm 0.01 in0.3 mm
07:43 AM 70.4°F21.3°C 69.8°F21.0°C 98% Calm Calm 2.0 mph3.2 kmh 29.95 in1014.2 mb 0.00 in0.0 mm 0.00 in0.0 mm 0.01 in0.3 mm
07:48 AM 70.5°F21.4°C 69.9°F21.1°C 98% Calm Calm 2.0 mph3.2 kmh 29.95 in1014.2 mb 0.00 in0.0 mm 0.00 in0.0 mm 0.01 in0.3 mm
07:53 AM 70.8°F21.6°C 70.2°F21.2°C 98% 1.0 mph W1.6 kmh W 2.0 mph3.2 kmh 29.95 in1014.2 mb 0.00 in0.0 mm 0.00 in0.0 mm 0.01 in0.3 mm
07:58 AM 70.7°F21.5°C 70.1°F21.2°C 98% 1.5 mph WSW2.4 kmh WSW 2.0 mph3.2 kmh 29.96 in1014.6 mb 0.00 in0.0 mm 0.00 in0.0 mm 0.01 in0.3 mm
08:03 AM 70.6°F21.4°C 70.0°F21.1°C 98% 1.0 mph W1.6 kmh W 2.0 mph3.2 kmh 29.96 in1014.6 mb 0.00 in0.0 mm 0.00 in0.0 mm 0.01 in0.3 mm
08:08 AM 70.7°F21.5°C 70.1°F21.2°C 98% Calm Calm 2.0 mph3.2 kmh 29.96 in1014.6 mb 0.00 in0.0 mm 0.00 in0.0 mm 0.01 in0.3 mm
08:13 AM 70.9°F21.6°C 70.3°F21.3°C 98% 1.0 mph WNW1.6 kmh WNW 2.0 mph3.2 kmh 29.96 in1014.6 mb 0.00 in0.0 mm 0.00 in0.0 mm 0.01 in0.3 mm
08:18 AM 70.9°F21.6°C 70.3°F21.3°C 98% Calm Calm 1.0 mph1.6 kmh 29.96 in1014.6 mb 0.00 in0.0 mm 0.00 in0.0 mm 0.01 in0.3 mm
08:23 AM 70.8°F21.6°C 70.2°F21.2°C 98% 1.5 mph W2.4 kmh W 3.0 mph4.8 kmh 29.96 in1014.6 mb 0.00 in0.0 mm 0.00 in0.0 mm 0.01 in0.3 mm
08:28 AM 70.8°F21.6°C 70.2°F21.2°C 98% 1.0 mph SW1.6 kmh SW 3.0 mph4.8 kmh 29.97 in1014.9 mb 0.00 in0.0 mm 0.00 in0.0 mm 0.01 in0.3 mm
08:33 AM 70.7°F21.5°C 70.1°F21.2°C 98% 1.0 mph WNW1.6 kmh WNW 3.0 mph4.8 kmh 29.96 in1014.6 mb 0.00 in0.0 mm 0.00 in0.0 mm 0.01 in0.3 mm
08:38 AM 70.7°F21.5°C 70.1°F21.2°C 98% 1.0 mph W1.6 kmh W 3.0 mph4.8 kmh 29.97 in1014.9 mb 0.00 in0.0 mm 0.00 in0.0 mm 0.01 in0.3 mm
08:43 AM 70.9°F21.6°C 70.3°F21.3°C 98% Calm Calm 3.0 mph4.8 kmh 29.96 in1014.6 mb 0.00 in0.0 mm 0.00 in0.0 mm 0.01 in0.3 mm
08:48 AM 71.1°F21.7°C 70.5°F21.4°C 98% 1.0 mph WNW1.6 kmh WNW 2.0 mph3.2 kmh 29.97 in1014.9 mb 0.00 in0.0 mm 0.00 in0.0 mm 0.01 in0.3 mm
08:53 AM 71.1°F21.7°C 70.5°F21.4°C 98% 1.0 mph WNW1.6 kmh WNW 2.0 mph3.2 kmh 29.97 in1014.9 mb 0.00 in0.0 mm 0.00 in0.0 mm 0.01 in0.3 mm
08:58 AM 71.4°F21.9°C 70.8°F21.6°C 98% 1.0 mph WNW1.6 kmh WNW 2.0 mph3.2 kmh 29.97 in1014.9 mb 0.00 in0.0 mm 0.00 in0.0 mm 0.01 in0.3 mm
09:03 AM 71.4°F21.9°C 70.8°F21.6°C 98% 1.0 mph WNW1.6 kmh WNW 2.0 mph3.2 kmh 29.97 in1014.9 mb 0.00 in0.0 mm 0.00 in0.0 mm 0.01 in0.3 mm
09:08 AM 71.7°F22.1°C 71.1°F21.7°C 98% Calm Calm 2.0 mph3.2 kmh 29.97 in1014.9 mb 0.00 in0.0 mm 0.00 in0.0 mm 0.01 in0.3 mm
09:13 AM 71.8°F22.1°C 71.2°F21.8°C 98% 1.0 mph NE1.6 kmh NE 1.0 mph1.6 kmh 29.97 in1014.9 mb 0.00 in0.0 mm 0.00 in0.0 mm 0.01 in0.3 mm
09:18 AM 72.0°F22.2°C 71.4°F21.9°C 98% Calm Calm 1.0 mph1.6 kmh 29.97 in1014.9 mb 0.00 in0.0 mm 0.00 in0.0 mm 0.01 in0.3 mm
09:23 AM 72.2°F22.3°C 71.6°F22.0°C 98% Calm Calm 1.0 mph1.6 kmh 29.97 in1014.9 mb 0.00 in0.0 mm 0.00 in0.0 mm 0.01 in0.3 mm
09:28 AM 72.3°F22.4°C 71.7°F22.1°C 98% 1.0 mph WSW1.6 kmh WSW 1.0 mph1.6 kmh 29.97 in1014.9 mb 0.00 in0.0 mm 0.00 in0.0 mm 0.01 in0.3 mm
09:33 AM 72.4°F22.4°C 71.8°F22.1°C 98% Calm Calm 1.0 mph1.6 kmh 29.97 in1014.9 mb 0.00 in0.0 mm 0.00 in0.0 mm 0.01 in0.3 mm
09:38 AM 72.7°F22.6°C 72.1°F22.3°C 98% 1.4 mph WSW2.3 kmh WSW 2.0 mph3.2 kmh 29.97 in1014.9 mb 0.00 in0.0 mm 0.00 in0.0 mm 0.01 in0.3 mm
09:43 AM 72.6°F22.6°C 71.7°F22.1°C 97% 1.0 mph WSW1.6 kmh WSW 2.0 mph3.2 kmh 29.97 in1014.9 mb 0.00 in0.0 mm 0.00 in0.0 mm 0.01 in0.3 mm
09:48 AM 72.9°F22.7°C 72.0°F22.2°C 97% Calm Calm 2.0 mph3.2 kmh 29.97 in1014.9 mb 0.00 in0.0 mm 0.00 in0.0 mm 0.01 in0.3 mm
09:53 AM 73.3°F22.9°C 72.4°F22.4°C 97% Calm Calm 2.0 mph3.2 kmh 29.97 in1014.9 mb 0.00 in0.0 mm 0.00 in0.0 mm 0.01 in0.3 mm
09:58 AM 74.0°F23.3°C 73.1°F22.8°C 97% Calm Calm 1.0 mph1.6 kmh 29.97 in1014.9 mb 0.00 in0.0 mm 0.00 in0.0 mm 0.01 in0.3 mm
10:03 AM 74.8°F23.8°C 73.6°F23.1°C 96% Calm Calm 1.0 mph1.6 kmh 29.97 in1014.9 mb 0.00 in0.0 mm 0.00 in0.0 mm 0.01 in0.3 mm
10:08 AM 75.5°F24.2°C 73.6°F23.1°C 94% 1.0 mph NE1.6 kmh NE 1.0 mph1.6 kmh 29.97 in1014.9 mb 0.00 in0.0 mm 0.00 in0.0 mm 0.01 in0.3 mm
10:13 AM 76.0°F24.4°C 73.5°F23.1°C 92% 1.0 mph SE1.6 kmh SE 1.0 mph1.6 kmh 29.97 in1014.9 mb 0.00 in0.0 mm 0.00 in0.0 mm 0.01 in0.3 mm
10:17 AM 76.3°F24.6°C 73.1°F22.8°C 90% 1.0 mph SW1.6 kmh SW 1.0 mph1.6 kmh 29.97 in1014.9 mb 0.00 in0.0 mm 0.00 in0.0 mm 0.01 in0.3 mm
10:22 AM 76.6°F24.8°C 73.4°F23.0°C 90% 1.0 mph SW1.6 kmh SW 1.0 mph1.6 kmh 29.97 in1014.9 mb 0.00 in0.0 mm 0.00 in0.0 mm 0.01 in0.3 mm
10:27 AM 77.2°F25.1°C 73.7°F23.2°C 89% 1.0 mph SSE1.6 kmh SSE 1.0 mph1.6 kmh 29.97 in1014.9 mb 0.00 in0.0 mm 0.00 in0.0 mm 0.01 in0.3 mm
10:32 AM 78.1°F25.6°C 73.9°F23.3°C 87% Calm Calm 1.0 mph1.6 kmh 29.97 in1014.9 mb 0.00 in0.0 mm 0.00 in0.0 mm 0.01 in0.3 mm
10:37 AM 78.7°F25.9°C 74.2°F23.4°C 86% 1.0 mph SE1.6 kmh SE 1.0 mph1.6 kmh 29.97 in1014.9 mb 0.00 in0.0 mm 0.00 in0.0 mm 0.01 in0.3 mm
10:42 AM 78.8°F26.0°C 74.0°F23.3°C 85% Calm Calm 1.0 mph1.6 kmh 29.97 in1014.9 mb 0.00 in0.0 mm 0.00 in0.0 mm 0.01 in0.3 mm
10:47 AM 79.0°F26.1°C 73.8°F23.2°C 84% Calm Calm 2.0 mph3.2 kmh 29.97 in1014.9 mb 0.00 in0.0 mm 0.00 in0.0 mm 0.01 in0.3 mm
10:52 AM 79.6°F26.4°C 74.1°F23.4°C 83% 1.0 mph SE1.6 kmh SE 2.0 mph3.2 kmh 29.97 in1014.9 mb 0.00 in0.0 mm 0.00 in0.0 mm 0.01 in0.3 mm
10:57 AM 79.7°F26.5°C 74.2°F23.4°C 83% 1.3 mph SSE2.1 kmh SSE 3.0 mph4.8 kmh 29.97 in1014.9 mb 0.00 in0.0 mm 0.00 in0.0 mm 0.01 in0.3 mm
11:02 AM 80.1°F26.7°C 74.1°F23.4°C 82% 1.1 mph E1.8 kmh E 3.0 mph4.8 kmh 29.96 in1014.6 mb 0.00 in0.0 mm 0.00 in0.0 mm 0.01 in0.3 mm
11:07 AM 79.9°F26.6°C 74.3°F23.5°C 83% Calm Calm 3.0 mph4.8 kmh 29.96 in1014.6 mb 0.00 in0.0 mm 0.00 in0.0 mm 0.01 in0.3 mm
11:12 AM 80.3°F26.8°C 74.0°F23.3°C 81% 1.0 mph SE1.6 kmh SE 3.0 mph4.8 kmh 29.96 in1014.6 mb 0.00 in0.0 mm 0.00 in0.0 mm 0.01 in0.3 mm
11:17 AM 80.9°F27.2°C 74.3°F23.5°C 80% 1.0 mph E1.6 kmh E 2.0 mph3.2 kmh 29.96 in1014.6 mb 0.00 in0.0 mm 0.00 in0.0 mm 0.01 in0.3 mm
11:22 AM 81.2°F27.3°C 74.6°F23.7°C 80% 1.0 mph E1.6 kmh E 2.0 mph3.2 kmh 29.96 in1014.6 mb 0.00 in0.0 mm 0.00 in0.0 mm 0.01 in0.3 mm
11:27 AM 81.6°F27.6°C 73.7°F23.2°C 77% 1.3 mph WSW2.1 kmh WSW 2.0 mph3.2 kmh 29.96 in1014.6 mb 0.00 in0.0 mm 0.00 in0.0 mm 0.01 in0.3 mm
11:32 AM 81.6°F27.6°C 74.6°F23.7°C 79% Calm Calm 2.0 mph3.2 kmh 29.96 in1014.6 mb 0.00 in0.0 mm 0.00 in0.0 mm 0.01 in0.3 mm
11:37 AM 81.9°F27.7°C 74.5°F23.6°C 78% Calm Calm 2.0 mph3.2 kmh 29.96 in1014.6 mb 0.00 in0.0 mm 0.00 in0.0 mm 0.01 in0.3 mm
11:42 AM 82.4°F28.0°C 74.6°F23.7°C 77% 1.0 mph NNE1.6 kmh NNE 2.0 mph3.2 kmh 29.96 in1014.6 mb 0.00 in0.0 mm 0.00 in0.0 mm 0.01 in0.3 mm
11:47 AM 82.5°F28.1°C 74.7°F23.7°C 77% 1.8 mph SW2.9 kmh SW 4.0 mph6.4 kmh 29.96 in1014.6 mb 0.00 in0.0 mm 0.00 in0.0 mm 0.01 in0.3 mm
11:52 AM 82.7°F28.2°C 74.9°F23.8°C 77% 2.1 mph SSW3.4 kmh SSW 4.0 mph6.4 kmh 29.95 in1014.2 mb 0.00 in0.0 mm 0.00 in0.0 mm 0.01 in0.3 mm
11:57 AM 83.1°F28.4°C 75.3°F24.1°C 77% 1.3 mph WSW2.1 kmh WSW 4.0 mph6.4 kmh 29.95 in1014.2 mb 0.00 in0.0 mm 0.00 in0.0 mm 0.01 in0.3 mm
12:02 PM 83.2°F28.4°C 74.8°F23.8°C 76% 1.1 mph W1.8 kmh W 4.0 mph6.4 kmh 29.95 in1014.2 mb 0.00 in0.0 mm 0.00 in0.0 mm 0.01 in0.3 mm
12:07 PM 82.8°F28.2°C 73.9°F23.3°C 74% 1.7 mph WNW2.7 kmh WNW 4.0 mph6.4 kmh 29.95 in1014.2 mb 0.00 in0.0 mm 0.00 in0.0 mm 0.01 in0.3 mm
12:12 PM 83.3°F28.5°C 74.5°F23.6°C 75% 1.5 mph SW2.4 kmh SW 4.0 mph6.4 kmh 29.95 in1014.2 mb 0.00 in0.0 mm 0.00 in0.0 mm 0.01 in0.3 mm
12:17 PM 84.1°F28.9°C 74.3°F23.5°C 72% 1.6 mph NW2.6 kmh NW 4.0 mph6.4 kmh 29.95 in1014.2 mb 0.00 in0.0 mm 0.00 in0.0 mm 0.01 in0.3 mm
12:22 PM 84.1°F28.9°C 74.7°F23.7°C 73% 1.0 mph WSW1.6 kmh WSW 4.0 mph6.4 kmh 29.95 in1014.2 mb 0.00 in0.0 mm 0.00 in0.0 mm 0.01 in0.3 mm
12:27 PM 84.6°F29.2°C 74.8°F23.8°C 72% 1.0 mph E1.6 kmh E 3.0 mph4.8 kmh 29.95 in1014.2 mb 0.00 in0.0 mm 0.00 in0.0 mm 0.01 in0.3 mm
12:32 PM 85.1°F29.5°C 75.7°F24.3°C 73% 1.0 mph ESE1.6 kmh ESE 3.0 mph4.8 kmh 29.94 in1013.9 mb 0.00 in0.0 mm 0.00 in0.0 mm 0.01 in0.3 mm
12:37 PM 86.0°F30.0°C 75.7°F24.3°C 71% 1.6 mph NW2.6 kmh NW 3.0 mph4.8 kmh 29.94 in1013.9 mb 0.00 in0.0 mm 0.00 in0.0 mm 0.01 in0.3 mm
12:42 PM 85.9°F29.9°C 74.8°F23.8°C 69% 1.3 mph S2.1 kmh S 6.0 mph9.7 kmh 29.94 in1013.9 mb 0.00 in0.0 mm 0.00 in0.0 mm 0.01 in0.3 mm
12:47 PM 86.5°F30.3°C 74.2°F23.4°C 67% 1.0 mph N1.6 kmh N 6.0 mph9.7 kmh 29.94 in1013.9 mb 0.00 in0.0 mm 0.00 in0.0 mm 0.01 in0.3 mm
12:52 PM 86.6°F30.3°C 74.2°F23.4°C 66% 2.2 mph WSW3.5 kmh WSW 6.0 mph9.7 kmh 29.93 in1013.5 mb 0.00 in0.0 mm 0.00 in0.0 mm 0.01 in0.3 mm
12:57 PM 86.6°F30.3°C 74.6°F23.7°C 67% 1.0 mph WNW1.6 kmh WNW 6.0 mph9.7 kmh 29.93 in1013.5 mb 0.00 in0.0 mm 0.00 in0.0 mm 0.01 in0.3 mm
01:02 PM 87.2°F30.7°C 74.5°F23.6°C 66% Calm Calm 5.0 mph8.0 kmh 29.93 in1013.5 mb 0.00 in0.0 mm 0.00 in0.0 mm 0.01 in0.3 mm
01:07 PM 87.3°F30.7°C 73.9°F23.3°C 64% 1.9 mph W3.1 kmh W 5.0 mph8.0 kmh 29.92 in1013.2 mb 0.00 in0.0 mm 0.00 in0.0 mm 0.01 in0.3 mm
01:12 PM 86.8°F30.4°C 73.4°F23.0°C 64% 1.5 mph N2.4 kmh N 5.0 mph8.0 kmh 29.92 in1013.2 mb 0.00 in0.0 mm 0.00 in0.0 mm 0.01 in0.3 mm
01:17 PM 87.1°F30.6°C 72.5°F22.5°C 62% 1.0 mph WNW1.6 kmh WNW 5.0 mph8.0 kmh 29.92 in1013.2 mb 0.00 in0.0 mm 0.00 in0.0 mm 0.01 in0.3 mm
01:22 PM 87.4°F30.8°C 72.6°F22.6°C 61% 3.1 mph NNW5.0 kmh NNW 6.0 mph9.7 kmh 29.92 in1013.2 mb 0.00 in0.0 mm 0.00 in0.0 mm 0.01 in0.3 mm
01:27 PM 87.5°F30.8°C 72.7°F22.6°C 61% 2.4 mph NW3.9 kmh NW 6.0 mph9.7 kmh 29.91 in1012.9 mb 0.00 in0.0 mm 0.00 in0.0 mm 0.01 in0.3 mm
01:32 PM 87.9°F31.1°C 72.1°F22.3°C 59% 1.6 mph E2.6 kmh E 6.0 mph9.7 kmh 29.91 in1012.9 mb 0.00 in0.0 mm 0.00 in0.0 mm 0.01 in0.3 mm
01:37 PM 87.8°F31.0°C 71.5°F21.9°C 58% 2.0 mph NW3.2 kmh NW 6.0 mph9.7 kmh 29.91 in1012.9 mb 0.00 in0.0 mm 0.00 in0.0 mm 0.01 in0.3 mm
01:42 PM 87.7°F30.9°C 71.9°F22.2°C 59% 3.2 mph WNW5.1 kmh WNW 7.0 mph11.3 kmh 29.91 in1012.9 mb 0.00 in0.0 mm 0.00 in0.0 mm 0.01 in0.3 mm
01:47 PM 88.0°F31.1°C 71.6°F22.0°C 58% 1.3 mph NNW2.1 kmh NNW 7.0 mph11.3 kmh 29.91 in1012.9 mb 0.00 in0.0 mm 0.00 in0.0 mm 0.01 in0.3 mm
01:52 PM 88.3°F31.3°C 71.1°F21.7°C 57% 3.7 mph WNW6.0 kmh WNW 7.0 mph11.3 kmh 29.91 in1012.9 mb 0.00 in0.0 mm 0.00 in0.0 mm 0.01 in0.3 mm
01:57 PM 88.2°F31.2°C 66.2°F19.0°C 48% 3.5 mph WNW5.6 kmh WNW 11.0 mph17.7 kmh 29.91 in1012.9 mb 0.00 in0.0 mm 0.00 in0.0 mm 0.01 in0.3 mm
02:02 PM 88.7°F31.5°C 67.8°F19.9°C 50% 3.8 mph WNW6.1 kmh WNW 11.0 mph17.7 kmh 29.91 in1012.9 mb 0.00 in0.0 mm 0.00 in0.0 mm 0.01 in0.3 mm
02:07 PM 88.6°F31.4°C 69.3°F20.7°C 53% 2.3 mph WSW3.7 kmh WSW 11.0 mph17.7 kmh 29.90 in1012.5 mb 0.00 in0.0 mm 0.00 in0.0 mm 0.01 in0.3 mm
02:12 PM 88.8°F31.6°C 68.5°F20.3°C 51% 2.9 mph WNW4.7 kmh WNW 11.0 mph17.7 kmh 29.90 in1012.5 mb 0.00 in0.0 mm 0.00 in0.0 mm 0.01 in0.3 mm
02:17 PM 88.8°F31.6°C 69.7°F20.9°C 53% 2.3 mph N3.7 kmh N 9.0 mph14.5 kmh 29.90 in1012.5 mb 0.00 in0.0 mm 0.00 in0.0 mm 0.01 in0.3 mm
02:22 PM 89.3°F31.8°C 67.8°F19.9°C 49% 2.4 mph W3.9 kmh W 11.0 mph17.7 kmh 29.90 in1012.5 mb 0.00 in0.0 mm 0.00 in0.0 mm 0.01 in0.3 mm
02:27 PM 89.6°F32.0°C 66.7°F19.3°C 47% 2.4 mph WSW3.9 kmh WSW 11.0 mph17.7 kmh 29.89 in1012.2 mb 0.00 in0.0 mm 0.00 in0.0 mm 0.01 in0.3 mm
02:32 PM 90.1°F32.3°C 67.3°F19.6°C 47% 1.0 mph NE1.6 kmh NE 11.0 mph17.7 kmh 29.89 in1012.2 mb 0.00 in0.0 mm 0.00 in0.0 mm 0.01 in0.3 mm
02:37 PM 90.2°F32.3°C 68.0°F20.0°C 48% 2.2 mph WSW3.5 kmh WSW 11.0 mph17.7 kmh 29.89 in1012.2 mb 0.00 in0.0 mm 0.00 in0.0 mm 0.01 in0.3 mm
02:42 PM 90.8°F32.7°C 66.6°F19.2°C 45% 3.1 mph WSW5.0 kmh WSW 7.0 mph11.3 kmh 29.88 in1011.9 mb 0.00 in0.0 mm 0.00 in0.0 mm 0.01 in0.3 mm
02:47 PM 90.3°F32.4°C 68.1°F20.1°C 48% 3.7 mph WSW6.0 kmh WSW 10.0 mph16.1 kmh 29.88 in1011.9 mb 0.00 in0.0 mm 0.00 in0.0 mm 0.01 in0.3 mm
02:52 PM 89.8°F32.1°C 67.6°F19.8°C 48% 2.9 mph W4.7 kmh W 10.0 mph16.1 kmh 29.88 in1011.9 mb 0.00 in0.0 mm 0.00 in0.0 mm 0.01 in0.3 mm
02:57 PM 89.8°F32.1°C 67.6°F19.8°C 48% 1.1 mph SW1.8 kmh SW 10.0 mph16.1 kmh 29.88 in1011.9 mb 0.00 in0.0 mm 0.00 in0.0 mm 0.01 in0.3 mm
03:02 PM 90.7°F32.6°C 68.5°F20.3°C 48% 1.0 mph NW1.6 kmh NW 10.0 mph16.1 kmh 29.88 in1011.9 mb 0.00 in0.0 mm 0.00 in0.0 mm 0.01 in0.3 mm
03:07 PM 91.1°F32.8°C 68.2°F20.1°C 47% 4.4 mph W7.1 kmh W 10.0 mph16.1 kmh 29.89 in1012.2 mb 0.00 in0.0 mm 0.00 in0.0 mm 0.01 in0.3 mm
03:12 PM 90.8°F32.7°C 67.8°F19.9°C 47% 2.6 mph WNW4.2 kmh WNW 9.0 mph14.5 kmh 29.88 in1011.9 mb 0.00 in0.0 mm 0.00 in0.0 mm 0.01 in0.3 mm
03:17 PM 90.7°F32.6°C 69.1°F20.6°C 49% 1.0 mph W1.6 kmh W 9.0 mph14.5 kmh 29.88 in1011.9 mb 0.00 in0.0 mm 0.00 in0.0 mm 0.01 in0.3 mm
03:22 PM 90.8°F32.7°C 69.2°F20.7°C 49% 2.1 mph WNW3.4 kmh WNW 9.0 mph14.5 kmh 29.88 in1011.9 mb 0.00 in0.0 mm 0.00 in0.0 mm 0.01 in0.3 mm
03:27 PM 90.7°F32.6°C 69.1°F20.6°C 49% 3.3 mph WNW5.3 kmh WNW 7.0 mph11.3 kmh 29.88 in1011.9 mb 0.00 in0.0 mm 0.00 in0.0 mm 0.01 in0.3 mm
03:32 PM 90.2°F32.3°C 68.5°F20.3°C 49% 2.9 mph WSW4.7 kmh WSW 8.0 mph12.9 kmh 29.88 in1011.9 mb 0.00 in0.0 mm 0.00 in0.0 mm 0.01 in0.3 mm
03:37 PM 90.6°F32.6°C 69.4°F20.8°C 50% 2.1 mph WNW3.4 kmh WNW 8.0 mph12.9 kmh 29.88 in1011.9 mb 0.00 in0.0 mm 0.00 in0.0 mm 0.01 in0.3 mm
03:42 PM 90.8°F32.7°C 69.2°F20.7°C 49% 3.0 mph N4.8 kmh N 8.0 mph12.9 kmh 29.88 in1011.9 mb 0.00 in0.0 mm 0.00 in0.0 mm 0.01 in0.3 mm
03:47 PM 90.5°F32.5°C 68.7°F20.4°C 49% 2.1 mph NNE3.4 kmh NNE 8.0 mph12.9 kmh 29.88 in1011.9 mb 0.00 in0.0 mm 0.00 in0.0 mm 0.01 in0.3 mm
03:52 PM 90.4°F32.4°C 68.8°F20.4°C 49% 2.8 mph NE4.5 kmh NE 8.0 mph12.9 kmh 29.87 in1011.5 mb 0.00 in0.0 mm 0.00 in0.0 mm 0.01 in0.3 mm
03:57 PM 90.6°F32.6°C 69.0°F20.6°C 49% 2.2 mph WNW3.5 kmh WNW 8.0 mph12.9 kmh 29.88 in1011.9 mb 0.00 in0.0 mm 0.00 in0.0 mm 0.01 in0.3 mm
04:02 PM 90.8°F32.7°C 69.6°F20.9°C 50% 1.3 mph NE2.1 kmh NE 7.0 mph11.3 kmh 29.87 in1011.5 mb 0.00 in0.0 mm 0.00 in0.0 mm 0.01 in0.3 mm
04:07 PM 90.9°F32.7°C 69.3°F20.7°C 49% 3.4 mph NE5.5 kmh NE 6.0 mph9.7 kmh 29.87 in1011.5 mb 0.00 in0.0 mm 0.00 in0.0 mm 0.01 in0.3 mm
04:12 PM 90.5°F32.5°C 70.1°F21.2°C 51% 4.5 mph NE7.2 kmh NE 7.0 mph11.3 kmh 29.87 in1011.5 mb 0.00 in0.0 mm 0.00 in0.0 mm 0.01 in0.3 mm
04:16 PM 90.7°F32.6°C 69.7°F20.9°C 50% 1.6 mph NNW2.6 kmh NNW 8.0 mph12.9 kmh 29.87 in1011.5 mb 0.00 in0.0 mm 0.00 in0.0 mm 0.01 in0.3 mm
04:21 PM 91.0°F32.8°C 70.0°F21.1°C 50% 1.0 mph NE1.6 kmh NE 8.0 mph12.9 kmh 29.87 in1011.5 mb 0.00 in0.0 mm 0.00 in0.0 mm 0.01 in0.3 mm
04:26 PM 91.4°F33.0°C 69.7°F20.9°C 49% 3.0 mph W4.8 kmh W 8.0 mph12.9 kmh 29.87 in1011.5 mb 0.00 in0.0 mm 0.00 in0.0 mm 0.01 in0.3 mm
04:31 PM 91.1°F32.8°C 69.4°F20.8°C 49% 2.5 mph WSW4.0 kmh WSW 7.0 mph11.3 kmh 29.87 in1011.5 mb 0.00 in0.0 mm 0.00 in0.0 mm 0.01 in0.3 mm
04:36 PM 90.6°F32.6°C 69.0°F20.6°C 49% 1.7 mph W2.7 kmh W 7.0 mph11.3 kmh 29.87 in1011.5 mb 0.00 in0.0 mm 0.00 in0.0 mm 0.01 in0.3 mm
04:41 PM 90.5°F32.5°C 69.9°F21.1°C 51% 2.7 mph NW4.3 kmh NW 7.0 mph11.3 kmh 29.87 in1011.5 mb 0.00 in0.0 mm 0.00 in0.0 mm 0.01 in0.3 mm
04:46 PM 90.6°F32.6°C 69.6°F20.9°C 50% 1.6 mph W2.6 kmh W 7.0 mph11.3 kmh 29.87 in1011.5 mb 0.00 in0.0 mm 0.00 in0.0 mm 0.01 in0.3 mm
04:51 PM 90.5°F32.5°C 70.1°F21.2°C 51% 2.1 mph W3.4 kmh W 7.0 mph11.3 kmh 29.87 in1011.5 mb 0.00 in0.0 mm 0.00 in0.0 mm 0.01 in0.3 mm
04:56 PM 91.1°F32.8°C 70.1°F21.2°C 50% 1.3 mph WSW2.1 kmh WSW 6.0 mph9.7 kmh 29.86 in1011.2 mb 0.00 in0.0 mm 0.00 in0.0 mm 0.01 in0.3 mm
05:01 PM 91.7°F33.2°C 70.0°F21.1°C 49% 1.8 mph NW2.9 kmh NW 4.0 mph6.4 kmh 29.86 in1011.2 mb 0.00 in0.0 mm 0.00 in0.0 mm 0.01 in0.3 mm
05:06 PM 91.5°F33.1°C 69.6°F20.9°C 49% 2.9 mph NW4.7 kmh NW 5.0 mph8.0 kmh 29.86 in1011.2 mb 0.00 in0.0 mm 0.00 in0.0 mm 0.01 in0.3 mm
05:11 PM 91.3°F32.9°C 70.8°F21.6°C 51% 2.2 mph NE3.5 kmh NE 5.0 mph8.0 kmh 29.86 in1011.2 mb 0.00 in0.0 mm 0.00 in0.0 mm 0.01 in0.3 mm
05:16 PM 91.2°F32.9°C 70.1°F21.2°C 50% 2.4 mph NW3.9 kmh NW 8.0 mph12.9 kmh 29.86 in1011.2 mb 0.00 in0.0 mm 0.00 in0.0 mm 0.01 in0.3 mm
05:21 PM 90.8°F32.7°C 69.8°F21.0°C 50% 3.2 mph NW5.1 kmh NW 8.0 mph12.9 kmh 29.87 in1011.5 mb 0.00 in0.0 mm 0.00 in0.0 mm 0.01 in0.3 mm
05:26 PM 90.7°F32.6°C 69.5°F20.8°C 50% 2.9 mph WNW4.7 kmh WNW 9.0 mph14.5 kmh 29.86 in1011.2 mb 0.00 in0.0 mm 0.00 in0.0 mm 0.01 in0.3 mm
05:31 PM 91.0°F32.8°C 71.2°F21.8°C 52% 1.4 mph W2.3 kmh W 9.0 mph14.5 kmh 29.86 in1011.2 mb 0.00 in0.0 mm 0.00 in0.0 mm 0.01 in0.3 mm
05:36 PM 90.9°F32.7°C 70.5°F21.4°C 51% 3.6 mph WNW5.8 kmh WNW 9.0 mph14.5 kmh 29.86 in1011.2 mb 0.00 in0.0 mm 0.00 in0.0 mm 0.01 in0.3 mm
05:41 PM 90.2°F32.3°C 71.0°F21.7°C 53% 1.6 mph W2.6 kmh W 9.0 mph14.5 kmh 29.86 in1011.2 mb 0.00 in0.0 mm 0.00 in0.0 mm 0.01 in0.3 mm
05:46 PM 90.0°F32.2°C 70.8°F21.6°C 53% 1.8 mph NW2.9 kmh NW 7.0 mph11.3 kmh 29.87 in1011.5 mb 0.00 in0.0 mm 0.00 in0.0 mm 0.01 in0.3 mm
05:51 PM 89.6°F32.0°C 70.4°F21.3°C 53% 1.7 mph WSW2.7 kmh WSW 7.0 mph11.3 kmh 29.86 in1011.2 mb 0.00 in0.0 mm 0.00 in0.0 mm 0.01 in0.3 mm
05:56 PM 89.2°F31.8°C 70.6°F21.4°C 54% 1.9 mph W3.1 kmh W 4.0 mph6.4 kmh 29.86 in1011.2 mb 0.00 in0.0 mm 0.00 in0.0 mm 0.01 in0.3 mm
06:01 PM 88.9°F31.6°C 70.9°F21.6°C 55% 2.5 mph WNW4.0 kmh WNW 5.0 mph8.0 kmh 29.86 in1011.2 mb 0.00 in0.0 mm 0.00 in0.0 mm 0.01 in0.3 mm
06:06 PM 88.8°F31.6°C 71.3°F21.8°C 56% 1.0 mph WNW1.6 kmh WNW 5.0 mph8.0 kmh 29.86 in1011.2 mb 0.00 in0.0 mm 0.00 in0.0 mm 0.01 in0.3 mm
06:11 PM 89.0°F31.7°C 71.0°F21.7°C 55% 2.2 mph WNW3.5 kmh WNW 5.0 mph8.0 kmh 29.86 in1011.2 mb 0.00 in0.0 mm 0.00 in0.0 mm 0.01 in0.3 mm
06:16 PM 88.8°F31.6°C 71.3°F21.8°C 56% Calm Calm 5.0 mph8.0 kmh 29.86 in1011.2 mb 0.00 in0.0 mm 0.00 in0.0 mm 0.01 in0.3 mm
06:21 PM 88.3°F31.3°C 73.6°F23.1°C 62% 1.0 mph ESE1.6 kmh ESE 5.0 mph8.0 kmh 29.86 in1011.2 mb 0.00 in0.0 mm 0.00 in0.0 mm 0.01 in0.3 mm
06:26 PM 87.5°F30.8°C 74.6°F23.7°C 65% 1.3 mph SE2.1 kmh SE 5.0 mph8.0 kmh 29.86 in1011.2 mb 0.00 in0.0 mm 0.00 in0.0 mm 0.01 in0.3 mm
06:31 PM 86.9°F30.5°C 74.9°F23.8°C 67% 1.3 mph SW2.1 kmh SW 4.0 mph6.4 kmh 29.86 in1011.2 mb 0.00 in0.0 mm 0.00 in0.0 mm 0.01 in0.3 mm
06:36 PM 86.5°F30.3°C 75.0°F23.9°C 68% 1.6 mph SW2.6 kmh SW 4.0 mph6.4 kmh 29.86 in1011.2 mb 0.00 in0.0 mm 0.00 in0.0 mm 0.01 in0.3 mm
06:41 PM 86.5°F30.3°C 75.0°F23.9°C 68% 1.8 mph SSW2.9 kmh SSW 4.0 mph6.4 kmh 29.86 in1011.2 mb 0.00 in0.0 mm 0.00 in0.0 mm 0.01 in0.3 mm
06:46 PM 86.6°F30.3°C 75.5°F24.2°C 69% 1.0 mph WSW1.6 kmh WSW 4.0 mph6.4 kmh 29.86 in1011.2 mb 0.00 in0.0 mm 0.00 in0.0 mm 0.01 in0.3 mm
06:51 PM 86.7°F30.4°C 75.3°F24.1°C 69% 1.6 mph S2.6 kmh S 4.0 mph6.4 kmh 29.86 in1011.2 mb 0.00 in0.0 mm 0.00 in0.0 mm 0.01 in0.3 mm
06:56 PM 86.3°F30.2°C 75.2°F24.0°C 69% 1.9 mph SE3.1 kmh SE 4.0 mph6.4 kmh 29.86 in1011.2 mb 0.00 in0.0 mm 0.00 in0.0 mm 0.01 in0.3 mm
07:01 PM 86.0°F30.0°C 75.3°F24.1°C 70% 1.4 mph S2.3 kmh S 4.0 mph6.4 kmh 29.87 in1011.5 mb 0.00 in0.0 mm 0.00 in0.0 mm 0.01 in0.3 mm
07:06 PM 85.9°F29.9°C 75.2°F24.0°C 70% 1.7 mph S2.7 kmh S 4.0 mph6.4 kmh 29.86 in1011.2 mb 0.00 in0.0 mm 0.00 in0.0 mm 0.01 in0.3 mm
07:11 PM 85.6°F29.8°C 75.4°F24.1°C 71% 1.9 mph SE3.1 kmh SE 5.0 mph8.0 kmh 29.87 in1011.5 mb 0.00 in0.0 mm 0.00 in0.0 mm 0.01 in0.3 mm
07:16 PM 85.3°F29.6°C 75.5°F24.2°C 72% 1.7 mph SSW2.7 kmh SSW 5.0 mph8.0 kmh 29.87 in1011.5 mb 0.00 in0.0 mm 0.00 in0.0 mm 0.01 in0.3 mm
07:21 PM 85.1°F29.5°C 75.7°F24.3°C 73% 1.3 mph SE2.1 kmh SE 5.0 mph8.0 kmh 29.87 in1011.5 mb 0.00 in0.0 mm 0.00 in0.0 mm 0.01 in0.3 mm
07:26 PM 84.6°F29.2°C 75.6°F24.2°C 74% 1.4 mph SW2.3 kmh SW 5.0 mph8.0 kmh 29.88 in1011.9 mb 0.00 in0.0 mm 0.00 in0.0 mm 0.01 in0.3 mm
07:31 PM 83.9°F28.8°C 75.1°F23.9°C 75% 1.6 mph SW2.6 kmh SW 5.0 mph8.0 kmh 29.88 in1011.9 mb 0.00 in0.0 mm 0.00 in0.0 mm 0.01 in0.3 mm
07:36 PM 83.3°F28.5°C 74.7°F23.7°C 75% 2.0 mph SW3.2 kmh SW 7.0 mph11.3 kmh 29.88 in1011.9 mb 0.00 in0.0 mm 0.00 in0.0 mm 0.01 in0.3 mm
07:41 PM 82.9°F28.3°C 74.7°F23.7°C 76% 1.5 mph SW2.4 kmh SW 7.0 mph11.3 kmh 29.88 in1011.9 mb 0.00 in0.0 mm 0.00 in0.0 mm 0.01 in0.3 mm
07:46 PM 82.4°F28.0°C 74.6°F23.7°C 77% 1.6 mph SSW2.6 kmh SSW 7.0 mph11.3 kmh 29.88 in1011.9 mb 0.00 in0.0 mm 0.00 in0.0 mm 0.01 in0.3 mm
07:51 PM 82.1°F27.8°C 74.7°F23.7°C 78% 1.4 mph SW2.3 kmh SW 7.0 mph11.3 kmh 29.88 in1011.9 mb 0.00 in0.0 mm 0.00 in0.0 mm 0.01 in0.3 mm
07:56 PM 81.8°F27.7°C 74.3°F23.5°C 78% 1.0 mph WSW1.6 kmh WSW 4.0 mph6.4 kmh 29.88 in1011.9 mb 0.00 in0.0 mm 0.00 in0.0 mm 0.01 in0.3 mm
08:01 PM 81.5°F27.5°C 74.5°F23.6°C 79% 2.0 mph SW3.2 kmh SW 4.0 mph6.4 kmh 29.88 in1011.9 mb 0.00 in0.0 mm 0.00 in0.0 mm 0.01 in0.3 mm
08:06 PM 81.3°F27.4°C 74.3°F23.5°C 79% 1.3 mph SW2.1 kmh SW 4.0 mph6.4 kmh 29.88 in1011.9 mb 0.00 in0.0 mm 0.00 in0.0 mm 0.01 in0.3 mm
08:11 PM 81.1°F27.3°C 74.5°F23.6°C 80% 1.5 mph SW2.4 kmh SW 3.0 mph4.8 kmh 29.88 in1011.9 mb 0.00 in0.0 mm 0.00 in0.0 mm 0.01 in0.3 mm
08:16 PM 80.9°F27.2°C 74.3°F23.5°C 80% 1.9 mph SW3.1 kmh SW 4.0 mph6.4 kmh 29.89 in1012.2 mb 0.00 in0.0 mm 0.00 in0.0 mm 0.01 in0.3 mm
08:21 PM 80.7°F27.1°C 74.4°F23.6°C 81% 1.5 mph SW2.4 kmh SW 4.0 mph6.4 kmh 29.89 in1012.2 mb 0.00 in0.0 mm 0.00 in0.0 mm 0.01 in0.3 mm
08:26 PM 80.4°F26.9°C 74.1°F23.4°C 81% 1.5 mph SW2.4 kmh SW 4.0 mph6.4 kmh 29.89 in1012.2 mb 0.00 in0.0 mm 0.00 in0.0 mm 0.01 in0.3 mm
08:31 PM 80.2°F26.8°C 74.2°F23.4°C 82% 1.3 mph WSW2.1 kmh WSW 4.0 mph6.4 kmh 29.90 in1012.5 mb 0.00 in0.0 mm 0.00 in0.0 mm 0.01 in0.3 mm
08:36 PM 80.1°F26.7°C 74.2°F23.4°C 82% 1.7 mph SW2.7 kmh SW 4.0 mph6.4 kmh 29.90 in1012.5 mb 0.00 in0.0 mm 0.00 in0.0 mm 0.01 in0.3 mm
08:41 PM 80.0°F26.7°C 74.1°F23.4°C 82% 2.0 mph SSW3.2 kmh SSW 5.0 mph8.0 kmh 29.90 in1012.5 mb 0.00 in0.0 mm 0.00 in0.0 mm 0.01 in0.3 mm
08:46 PM 79.8°F26.6°C 74.2°F23.4°C 83% 1.7 mph SW2.7 kmh SW 5.0 mph8.0 kmh 29.90 in1012.5 mb 0.00 in0.0 mm 0.00 in0.0 mm 0.01 in0.3 mm
08:51 PM 79.6°F26.4°C 74.1°F23.4°C 83% 2.2 mph SW3.5 kmh SW 6.0 mph9.7 kmh 29.90 in1012.5 mb 0.00 in0.0 mm 0.00 in0.0 mm 0.01 in0.3 mm
08:56 PM 79.4°F26.3°C 73.9°F23.3°C 83% 1.0 mph SW1.6 kmh SW 6.0 mph9.7 kmh 29.90 in1012.5 mb 0.00 in0.0 mm 0.00 in0.0 mm 0.01 in0.3 mm
09:01 PM 79.3°F26.3°C 73.8°F23.2°C 83% 2.2 mph SW3.5 kmh SW 6.0 mph9.7 kmh 29.90 in1012.5 mb 0.00 in0.0 mm 0.00 in0.0 mm 0.01 in0.3 mm
09:06 PM 79.2°F26.2°C 73.7°F23.2°C 83% 2.0 mph SW3.2 kmh SW 6.0 mph9.7 kmh 29.90 in1012.5 mb 0.00 in0.0 mm 0.00 in0.0 mm 0.01 in0.3 mm
09:11 PM 79.1°F26.2°C 73.6°F23.1°C 83% 2.2 mph SW3.5 kmh SW 5.0 mph8.0 kmh 29.90 in1012.5 mb 0.00 in0.0 mm 0.00 in0.0 mm 0.01 in0.3 mm
09:16 PM 79.0°F26.1°C 73.8°F23.2°C 84% 1.1 mph SSW1.8 kmh SSW 6.0 mph9.7 kmh 29.90 in1012.5 mb 0.00 in0.0 mm 0.00 in0.0 mm 0.01 in0.3 mm
09:21 PM 78.8°F26.0°C 73.6°F23.1°C 84% 1.9 mph SW3.1 kmh SW 6.0 mph9.7 kmh 29.91 in1012.9 mb 0.00 in0.0 mm 0.00 in0.0 mm 0.01 in0.3 mm
09:26 PM 78.7°F25.9°C 73.5°F23.1°C 84% 1.9 mph SW3.1 kmh SW 6.0 mph9.7 kmh 29.91 in1012.9 mb 0.00 in0.0 mm 0.00 in0.0 mm 0.01 in0.3 mm
09:31 PM 78.5°F25.8°C 73.3°F22.9°C 84% 1.4 mph SW2.3 kmh SW 6.0 mph9.7 kmh 29.91 in1012.9 mb 0.00 in0.0 mm 0.00 in0.0 mm 0.01 in0.3 mm
09:36 PM 78.3°F25.7°C 73.5°F23.1°C 85% 1.4 mph SW2.3 kmh SW 5.0 mph8.0 kmh 29.91 in1012.9 mb 0.00 in0.0 mm 0.00 in0.0 mm 0.01 in0.3 mm
09:41 PM 78.2°F25.7°C 73.4°F23.0°C 85% 1.6 mph SW2.6 kmh SW 5.0 mph8.0 kmh 29.91 in1012.9 mb 0.00 in0.0 mm 0.00 in0.0 mm 0.01 in0.3 mm
09:46 PM 78.1°F25.6°C 73.3°F22.9°C 85% 1.1 mph SW1.8 kmh SW 3.0 mph4.8 kmh 29.91 in1012.9 mb 0.00 in0.0 mm 0.00 in0.0 mm 0.01 in0.3 mm
09:51 PM 77.9°F25.5°C 73.4°F23.0°C 86% 2.0 mph SW3.2 kmh SW 3.0 mph4.8 kmh 29.91 in1012.9 mb 0.00 in0.0 mm 0.00 in0.0 mm 0.01 in0.3 mm
09:56 PM 77.7°F25.4°C 73.2°F22.9°C 86% 1.0 mph SW1.6 kmh SW 3.0 mph4.8 kmh 29.92 in1013.2 mb 0.00 in0.0 mm 0.00 in0.0 mm 0.01 in0.3 mm
10:01 PM 77.5°F25.3°C 73.0°F22.8°C 86% 1.2 mph SW1.9 kmh SW 3.0 mph4.8 kmh 29.91 in1012.9 mb 0.00 in0.0 mm 0.00 in0.0 mm 0.01 in0.3 mm
10:06 PM 77.4°F25.2°C 73.2°F22.9°C 87% 1.0 mph WSW1.6 kmh WSW 3.0 mph4.8 kmh 29.91 in1012.9 mb 0.00 in0.0 mm 0.00 in0.0 mm 0.01 in0.3 mm
10:11 PM 77.3°F25.2°C 73.1°F22.8°C 87% 1.4 mph SW2.3 kmh SW 2.0 mph3.2 kmh 29.92 in1013.2 mb 0.00 in0.0 mm 0.00 in0.0 mm 0.01 in0.3 mm
10:15 PM 77.2°F25.1°C 72.7°F22.6°C 86% 1.7 mph SW2.7 kmh SW 5.0 mph8.0 kmh 29.91 in1012.9 mb 0.00 in0.0 mm 0.00 in0.0 mm 0.01 in0.3 mm
10:20 PM 77.3°F25.2°C 72.8°F22.7°C 86% 1.2 mph WSW1.9 kmh WSW 5.0 mph8.0 kmh 29.91 in1012.9 mb 0.00 in0.0 mm 0.00 in0.0 mm 0.01 in0.3 mm
10:25 PM 77.3°F25.2°C 72.5°F22.5°C 85% 2.0 mph SW3.2 kmh SW 6.0 mph9.7 kmh 29.91 in1012.9 mb 0.00 in0.0 mm 0.00 in0.0 mm 0.01 in0.3 mm
10:30 PM 77.3°F25.2°C 72.5°F22.5°C 85% 1.4 mph SW2.3 kmh SW 6.0 mph9.7 kmh 29.91 in1012.9 mb 0.00 in0.0 mm 0.00 in0.0 mm 0.01 in0.3 mm
10:35 PM 77.3°F25.2°C 72.5°F22.5°C 85% 1.2 mph SW1.9 kmh SW 6.0 mph9.7 kmh 29.91 in1012.9 mb 0.00 in0.0 mm 0.00 in0.0 mm 0.01 in0.3 mm
10:40 PM 77.1°F25.1°C 72.3°F22.4°C 85% 1.2 mph SW1.9 kmh SW 6.0 mph9.7 kmh 29.91 in1012.9 mb 0.00 in0.0 mm 0.00 in0.0 mm 0.01 in0.3 mm
10:45 PM 77.2°F25.1°C 72.3°F22.4°C 85% 2.1 mph WSW3.4 kmh WSW 5.0 mph8.0 kmh 29.91 in1012.9 mb 0.00 in0.0 mm 0.00 in0.0 mm 0.01 in0.3 mm
10:50 PM 77.3°F25.2°C 72.5°F22.5°C 85% 2.0 mph SW3.2 kmh SW 5.0 mph8.0 kmh 29.91 in1012.9 mb 0.00 in0.0 mm 0.00 in0.0 mm 0.01 in0.3 mm
10:55 PM 77.2°F25.1°C 72.4°F22.4°C 85% 1.2 mph WSW1.9 kmh WSW 5.0 mph8.0 kmh 29.91 in1012.9 mb 0.00 in0.0 mm 0.00 in0.0 mm 0.01 in0.3 mm
11:00 PM 77.1°F25.1°C 72.2°F22.3°C 85% 1.5 mph SW2.4 kmh SW 5.0 mph8.0 kmh 29.91 in1012.9 mb 0.00 in0.0 mm 0.00 in0.0 mm 0.01 in0.3 mm
11:05 PM 76.9°F24.9°C 72.1°F22.3°C 85% 2.0 mph SW3.2 kmh SW 4.0 mph6.4 kmh 29.91 in1012.9 mb 0.00 in0.0 mm 0.00 in0.0 mm 0.01 in0.3 mm
11:10 PM 76.8°F24.9°C 72.3°F22.4°C 86% 1.2 mph SW1.9 kmh SW 4.0 mph6.4 kmh 29.91 in1012.9 mb 0.00 in0.0 mm 0.00 in0.0 mm 0.01 in0.3 mm
11:15 PM 76.6°F24.8°C 72.1°F22.3°C 86% 1.4 mph SW2.3 kmh SW 4.0 mph6.4 kmh 29.91 in1012.9 mb 0.00 in0.0 mm 0.00 in0.0 mm 0.01 in0.3 mm
11:20 PM 76.6°F24.8°C 72.1°F22.3°C 86% 1.4 mph SW2.3 kmh SW 4.0 mph6.4 kmh 29.92 in1013.2 mb 0.00 in0.0 mm 0.00 in0.0 mm 0.01 in0.3 mm
11:25 PM 76.5°F24.7°C 72.0°F22.2°C 86% 1.8 mph WSW2.9 kmh WSW 4.0 mph6.4 kmh 29.92 in1013.2 mb 0.00 in0.0 mm 0.00 in0.0 mm 0.01 in0.3 mm
11:30 PM 76.4°F24.7°C 71.9°F22.2°C 86% 1.6 mph SW2.6 kmh SW 4.0 mph6.4 kmh 29.92 in1013.2 mb 0.00 in0.0 mm 0.00 in0.0 mm 0.01 in0.3 mm
11:35 PM 76.2°F24.6°C 71.7°F22.1°C 86% 1.6 mph SW2.6 kmh SW 4.0 mph6.4 kmh 29.91 in1012.9 mb 0.00 in0.0 mm 0.00 in0.0 mm 0.01 in0.3 mm
11:40 PM 75.9°F24.4°C 71.8°F22.1°C 87% 1.0 mph SW1.6 kmh SW 4.0 mph6.4 kmh 29.91 in1012.9 mb 0.00 in0.0 mm 0.00 in0.0 mm 0.01 in0.3 mm
11:45 PM 75.8°F24.3°C 71.7°F22.1°C 87% 1.0 mph SW1.6 kmh SW 3.0 mph4.8 kmh 29.91 in1012.9 mb 0.00 in0.0 mm 0.00 in0.0 mm 0.01 in0.3 mm
11:50 PM 75.6°F24.2°C 71.8°F22.1°C 88% Calm Calm 3.0 mph4.8 kmh 29.91 in1012.9 mb 0.00 in0.0 mm 0.00 in0.0 mm 0.01 in0.3 mm
11:55 PM 75.4°F24.1°C 71.6°F22.0°C 88% 1.0 mph SW1.6 kmh SW 3.0 mph4.8 kmh 29.92 in1013.2 mb 0.00 in0.0 mm 0.00 in0.0 mm 0.01 in0.3 mm